createdAt,value
2019-01-29T00:00:01.132Z,74.37
2019-01-29T00:02:34.435Z,74.44
2019-01-29T00:05:05.728Z,74.58
2019-01-29T00:07:37.652Z,74.69
2019-01-29T00:10:09.072Z,74.48
2019-01-29T00:12:39.312Z,74.19
2019-01-29T00:15:11.670Z,74.53
2019-01-29T00:17:42.228Z,74.33
2019-01-29T00:20:13.220Z,74.45
2019-01-29T00:22:44.817Z,74.70
2019-01-29T00:25:15.023Z,74.47
2019-01-29T00:27:46.799Z,74.63
2019-01-29T00:30:17.017Z,74.80
2019-01-29T00:32:47.255Z,75.04
2019-01-29T00:35:17.469Z,74.29
2019-01-29T00:37:47.694Z,74.70
2019-01-29T00:40:19.121Z,74.83
2019-01-29T00:42:49.356Z,74.39
2019-01-29T00:45:19.561Z,74.88
2019-01-29T00:47:49.806Z,74.43
2019-01-29T00:50:20.014Z,74.37
2019-01-29T00:52:50.255Z,74.58
2019-01-29T00:55:20.461Z,74.70
2019-01-29T00:57:51.622Z,74.63
2019-01-29T01:00:23.770Z,74.40
2019-01-29T01:02:55.134Z,74.59
2019-01-29T01:05:25.342Z,74.59
2019-01-29T01:07:55.582Z,74.65
2019-01-29T01:10:25.787Z,74.51
2019-01-29T01:12:56.020Z,74.69
2019-01-29T01:15:27.153Z,74.94
2019-01-29T01:17:57.403Z,75.09
2019-01-29T01:20:27.608Z,74.85
2019-01-29T01:22:57.834Z,74.93
2019-01-29T01:25:28.040Z,74.72
2019-01-29T01:27:58.286Z,74.89
2019-01-29T01:30:28.501Z,75.02
2019-01-29T01:32:58.720Z,75.22
2019-01-29T01:35:28.936Z,75.17
2019-01-29T01:37:59.167Z,75.42
2019-01-29T01:40:29.384Z,75.18
2019-01-29T01:42:59.613Z,75.06
2019-01-29T01:45:29.818Z,75.09
2019-01-29T01:48:00.061Z,75.28
2019-01-29T01:50:30.270Z,75.24
2019-01-29T01:53:00.502Z,75.35
2019-01-29T01:55:30.705Z,75.16
2019-01-29T01:58:00.943Z,75.16
2019-01-29T02:00:31.165Z,75.01
2019-01-29T02:03:01.402Z,75.34
2019-01-29T02:05:31.608Z,75.55
2019-01-29T02:08:01.841Z,75.26
2019-01-29T02:10:32.056Z,75.08
2019-01-29T02:13:02.284Z,75.09
2019-01-29T02:15:32.493Z,75.30
2019-01-29T02:18:03.602Z,75.35
2019-01-29T02:20:33.849Z,75.96
2019-01-29T02:23:08.148Z,75.64
2019-01-29T02:25:36.153Z,75.87
2019-01-29T02:28:06.651Z,75.66
2019-01-29T02:30:36.896Z,75.60
2019-01-29T02:33:07.135Z,75.73
2019-01-29T02:35:37.346Z,75.69
2019-01-29T02:38:07.579Z,75.77
2019-01-29T02:40:37.784Z,76.42
2019-01-29T02:43:08.026Z,76.78
2019-01-29T02:45:38.233Z,77.57
2019-01-29T02:48:08.487Z,77.98
2019-01-29T02:50:38.692Z,77.80
2019-01-29T02:53:17.787Z,77.88
2019-01-29T02:55:40.960Z,77.83
2019-01-29T02:58:11.524Z,77.93
2019-01-29T03:00:41.737Z,78.16
2019-01-29T03:03:11.962Z,78.16
2019-01-29T03:05:42.170Z,78.70
2019-01-29T03:08:13.021Z,78.71
2019-01-29T03:10:44.139Z,79.09
2019-01-29T03:13:14.382Z,78.93
2019-01-29T03:15:44.595Z,79.19
2019-01-29T03:18:14.822Z,79.04
2019-01-29T03:20:45.027Z,79.22
2019-01-29T03:23:15.269Z,79.37
2019-01-29T03:25:45.475Z,79.33
2019-01-29T03:28:15.705Z,79.29
2019-01-29T03:30:45.919Z,79.48
2019-01-29T03:33:16.185Z,79.57
2019-01-29T03:35:46.364Z,79.83
2019-01-29T03:38:16.603Z,79.80
2019-01-29T03:40:46.811Z,79.81
2019-01-29T03:43:17.053Z,79.84
2019-01-29T03:45:47.260Z,79.77
2019-01-29T03:48:17.495Z,79.58
2019-01-29T03:50:47.693Z,79.41
2019-01-29T03:53:18.860Z,79.45
2019-01-29T03:55:49.065Z,79.42
2019-01-29T03:58:20.240Z,78.91
2019-01-29T04:00:50.436Z,79.22
2019-01-29T04:03:20.685Z,78.90
2019-01-29T04:05:50.879Z,78.58
2019-01-29T04:08:21.120Z,78.91
2019-01-29T04:10:51.327Z,78.82
2019-01-29T04:13:21.556Z,78.62
2019-01-29T04:15:51.761Z,78.67
2019-01-29T04:18:22.008Z,78.71
2019-01-29T04:20:52.216Z,78.95
2019-01-29T04:23:22.453Z,78.98
2019-01-29T04:25:52.653Z,78.88
2019-01-29T04:28:22.893Z,78.57
2019-01-29T04:30:53.097Z,78.55
2019-01-29T04:33:23.335Z,78.38
2019-01-29T04:35:55.175Z,78.50
2019-01-29T04:38:25.400Z,78.43
2019-01-29T04:40:56.752Z,78.56
2019-01-29T04:43:26.992Z,78.11
2019-01-29T04:45:57.195Z,77.82
2019-01-29T04:48:27.437Z,78.12
2019-01-29T04:50:57.640Z,78.15
2019-01-29T04:53:27.885Z,78.26
2019-01-29T04:55:59.706Z,78.50
2019-01-29T04:58:30.783Z,78.41
2019-01-29T05:01:00.997Z,78.73
2019-01-29T05:03:31.238Z,78.35
2019-01-29T05:06:01.435Z,78.24
2019-01-29T05:08:32.603Z,78.33
2019-01-29T05:11:02.809Z,78.35
2019-01-29T05:13:33.051Z,78.60
2019-01-29T05:16:20.209Z,78.58
2019-01-29T05:19:29.709Z,78.53
2019-01-29T05:21:59.918Z,78.52
2019-01-29T05:24:31.480Z,78.78
2019-01-29T05:27:01.888Z,78.08
2019-01-29T05:29:32.139Z,77.63
2019-01-29T05:32:03.869Z,77.62
2019-01-29T05:34:34.117Z,77.34
2019-01-29T05:37:04.316Z,77.16
2019-01-29T05:39:34.561Z,77.02
2019-01-29T05:42:04.766Z,76.84
2019-01-29T05:44:35.006Z,77.31
2019-01-29T05:47:05.215Z,77.66
2019-01-29T05:49:35.464Z,77.70
2019-01-29T05:52:06.582Z,77.88
2019-01-29T05:54:37.744Z,77.50
2019-01-29T05:57:08.028Z,86.29
2019-01-29T05:59:38.543Z,85.37
2019-01-29T06:02:09.324Z,83.65
2019-01-29T06:04:40.780Z,69.19
2019-01-29T06:07:11.909Z,70.19
2019-01-29T06:09:43.073Z,71.41
2019-01-29T06:12:14.194Z,72.68
2019-01-29T06:14:47.825Z,73.57
2019-01-29T06:17:27.203Z,74.52
2019-01-29T06:19:52.870Z,75.18
2019-01-29T06:22:24.362Z,75.67
2019-01-29T06:24:56.692Z,75.60
2019-01-29T06:27:27.847Z,76.72
2019-01-29T06:29:58.974Z,77.17
2019-01-29T06:32:30.411Z,77.53
2019-01-29T06:35:01.574Z,78.27
2019-01-29T06:37:32.696Z,78.93
2019-01-29T06:40:04.027Z,78.97
2019-01-29T06:42:34.366Z,79.10
2019-01-29T06:45:07.808Z,79.09
2019-01-29T06:47:38.194Z,79.09
2019-01-29T06:50:15.054Z,79.40
2019-01-29T06:52:45.398Z,79.19
2019-01-29T06:55:19.731Z,79.22
2019-01-29T06:57:55.368Z,79.08
2019-01-29T07:00:29.855Z,79.21
2019-01-29T07:03:00.749Z,78.92
2019-01-29T07:05:32.205Z,78.68
2019-01-29T07:08:03.649Z,78.48
2019-01-29T07:10:34.809Z,78.34
2019-01-29T07:13:05.306Z,78.56
2019-01-29T07:15:53.366Z,78.27
2019-01-29T07:18:40.087Z,78.14
2019-01-29T07:21:12.264Z,78.08
2019-01-29T07:23:42.781Z,78.08
2019-01-29T07:26:13.929Z,77.49
2019-01-29T07:28:45.064Z,77.79
2019-01-29T07:31:16.247Z,77.13
2019-01-29T07:33:46.494Z,76.78
2019-01-29T07:36:18.325Z,77.15
2019-01-29T07:38:48.534Z,76.67
2019-01-29T07:41:18.776Z,76.62
2019-01-29T07:43:48.981Z,76.97
2019-01-29T07:46:19.210Z,76.99
2019-01-29T07:48:49.425Z,76.59
2019-01-29T07:51:19.657Z,77.01
2019-01-29T07:53:49.884Z,77.45
2019-01-29T07:56:20.111Z,77.46
2019-01-29T07:58:50.328Z,76.92
2019-01-29T08:01:20.578Z,76.57
2019-01-29T08:03:50.813Z,76.95
2019-01-29T08:06:21.073Z,76.90
2019-01-29T08:08:51.299Z,76.51
2019-01-29T08:11:21.530Z,76.27
2019-01-29T08:13:51.812Z,76.64
2019-01-29T08:16:22.986Z,76.60
2019-01-29T08:18:54.119Z,76.60
2019-01-29T08:21:25.282Z,76.27
2019-01-29T08:23:56.395Z,75.88
2019-01-29T08:26:27.890Z,75.25
2019-01-29T08:28:59.293Z,74.97
2019-01-29T08:31:30.463Z,74.57
2019-01-29T08:34:00.701Z,74.37
2019-01-29T08:36:32.141Z,74.19
2019-01-29T08:39:05.265Z,74.49
2019-01-29T08:41:35.687Z,74.42
2019-01-29T08:44:07.079Z,74.21
2019-01-29T08:46:37.360Z,74.49
2019-01-29T08:49:08.760Z,74.92
2019-01-29T08:51:39.913Z,74.94
2019-01-29T08:54:12.274Z,75.29
2019-01-29T08:56:43.469Z,75.12
2019-01-29T08:59:15.800Z,74.26
2019-01-29T09:01:49.102Z,74.04
2019-01-29T09:04:20.243Z,73.18
2019-01-29T09:06:51.416Z,72.42
2019-01-29T09:09:22.845Z,72.20
2019-01-29T09:11:53.086Z,72.34
2019-01-29T09:14:24.523Z,72.62
2019-01-29T09:16:54.755Z,73.67
2019-01-29T09:19:24.971Z,73.59
2019-01-29T09:21:57.348Z,73.87
2019-01-29T09:24:27.607Z,73.95
2019-01-29T09:26:59.028Z,74.06
2019-01-29T09:29:30.467Z,74.24
2019-01-29T09:32:01.944Z,73.82
2019-01-29T09:34:32.188Z,73.71
2019-01-29T09:37:03.604Z,73.75
2019-01-29T09:39:35.013Z,73.52
2019-01-29T09:42:07.270Z,73.40
2019-01-29T09:44:37.617Z,73.49
2019-01-29T09:47:09.261Z,73.62
2019-01-29T09:49:39.600Z,73.90
2019-01-29T09:52:10.751Z,73.51
2019-01-29T09:54:41.880Z,74.06
2019-01-29T09:57:14.897Z,73.68
2019-01-29T09:59:46.016Z,73.32
2019-01-29T10:02:18.415Z,73.87
2019-01-29T10:04:49.835Z,73.29
2019-01-29T10:07:21.001Z,72.79
2019-01-29T10:09:52.122Z,71.77
2019-01-29T10:12:23.294Z,71.25
2019-01-29T10:14:54.403Z,70.97
2019-01-29T10:17:26.036Z,70.92
2019-01-29T10:20:02.821Z,70.57
2019-01-29T10:22:30.923Z,70.23
2019-01-29T10:25:03.667Z,69.60
2019-01-29T10:27:35.999Z,69.82
2019-01-29T10:30:10.648Z,69.47
2019-01-29T10:32:41.063Z,69.70
2019-01-29T10:35:23.309Z,69.50
2019-01-29T10:37:54.702Z,68.25
2019-01-29T10:40:27.456Z,68.76
2019-01-29T10:42:58.887Z,68.47
2019-01-29T10:45:31.022Z,68.99
2019-01-29T10:48:04.011Z,69.48
2019-01-29T10:50:34.547Z,70.06
2019-01-29T10:53:06.653Z,70.06
2019-01-29T10:55:47.428Z,70.53
2019-01-29T10:58:18.916Z,71.28
2019-01-29T11:00:50.036Z,71.24
2019-01-29T11:03:21.532Z,70.53
2019-01-29T11:05:52.933Z,70.21
2019-01-29T11:08:29.373Z,68.89
2019-01-29T11:11:01.216Z,68.22
2019-01-29T11:13:33.760Z,68.40
2019-01-29T11:16:04.037Z,68.08
2019-01-29T11:18:39.331Z,67.90
2019-01-29T11:21:10.764Z,67.37
2019-01-29T11:23:46.279Z,68.30
2019-01-29T11:26:23.156Z,68.08
2019-01-29T11:28:54.148Z,68.31
2019-01-29T11:31:24.363Z,67.71
2019-01-29T11:33:54.596Z,68.43
2019-01-29T11:36:26.229Z,68.84
2019-01-29T11:38:58.110Z,68.46
2019-01-29T11:41:28.309Z,68.42
2019-01-29T11:44:00.573Z,68.34
2019-01-29T11:46:30.610Z,68.42
2019-01-29T11:49:02.723Z,68.48
2019-01-29T11:51:32.867Z,68.62
2019-01-29T11:54:03.115Z,69.09
2019-01-29T11:56:33.324Z,69.11
2019-01-29T11:59:05.565Z,68.86
2019-01-29T12:01:37.448Z,69.06
2019-01-29T12:04:09.848Z,69.88
2019-01-29T12:06:41.283Z,70.34
2019-01-29T12:09:11.527Z,70.91
2019-01-29T12:11:42.964Z,71.19
2019-01-29T12:14:13.208Z,72.17
2019-01-29T12:16:43.427Z,71.99
2019-01-29T12:19:13.657Z,71.39
2019-01-29T12:21:45.077Z,70.36
2019-01-29T12:24:19.818Z,68.95
2019-01-29T12:26:56.296Z,68.83
2019-01-29T12:29:26.528Z,69.42
2019-01-29T12:31:57.953Z,68.57
2019-01-29T12:34:29.434Z,67.41
2019-01-29T12:37:02.834Z,68.05
2019-01-29T12:39:37.911Z,66.69
2019-01-29T12:42:09.290Z,66.82
2019-01-29T12:44:39.525Z,67.71
2019-01-29T12:47:10.964Z,68.09
2019-01-29T12:49:44.334Z,68.16
2019-01-29T12:52:17.332Z,68.23
2019-01-29T12:54:49.320Z,68.33
2019-01-29T12:57:22.812Z,66.96
2019-01-29T12:59:53.146Z,66.35
2019-01-29T13:02:23.361Z,66.05
2019-01-29T13:04:57.045Z,66.12
2019-01-29T13:07:30.960Z,66.19
2019-01-29T13:10:01.396Z,66.89
2019-01-29T13:12:32.520Z,66.59
2019-01-29T13:15:06.266Z,66.87
2019-01-29T13:17:36.658Z,65.95
2019-01-29T13:20:10.400Z,63.76
2019-01-29T13:22:40.783Z,61.04
2019-01-29T13:25:12.962Z,60.63
2019-01-29T13:27:44.305Z,60.80
2019-01-29T13:30:26.613Z,60.51
2019-01-29T13:32:57.967Z,60.46
2019-01-29T13:35:33.267Z,61.17
2019-01-29T13:38:03.621Z,61.32
2019-01-29T13:40:34.786Z,60.10
2019-01-29T13:43:05.731Z,60.97
2019-01-29T13:45:37.522Z,60.61
2019-01-29T13:48:10.678Z,60.76
2019-01-29T13:50:44.975Z,61.84
2019-01-29T13:53:16.340Z,61.84
2019-01-29T13:55:46.587Z,61.99
2019-01-29T13:58:16.803Z,61.88
2019-01-29T14:00:47.029Z,61.88
2019-01-29T14:03:18.634Z,61.48
2019-01-29T14:05:49.910Z,59.67
2019-01-29T14:08:20.106Z,59.30
2019-01-29T14:10:50.423Z,59.50
2019-01-29T14:13:28.270Z,60.04
2019-01-29T14:15:58.521Z,60.77
2019-01-29T14:18:30.844Z,59.95
2019-01-29T14:21:01.086Z,60.18
2019-01-29T14:23:31.310Z,60.67
2019-01-29T14:26:03.472Z,60.99
2019-01-29T14:28:37.164Z,60.99
2019-01-29T14:31:07.547Z,60.71
2019-01-29T14:33:41.863Z,61.95
2019-01-29T14:36:22.734Z,61.95
2019-01-29T14:39:21.184Z,61.28
2019-01-29T14:41:54.172Z,61.42
2019-01-29T14:44:24.411Z,61.41
2019-01-29T14:46:55.872Z,61.29
2019-01-29T14:49:28.087Z,62.17
2019-01-29T14:51:59.984Z,62.12
2019-01-29T14:54:31.429Z,62.26
2019-01-29T14:57:01.701Z,61.98
2019-01-29T14:59:33.106Z,63.05
2019-01-29T15:02:03.365Z,62.29
2019-01-29T15:04:33.603Z,62.38
2019-01-29T15:07:04.720Z,63.06
2019-01-29T15:09:37.063Z,62.83
2019-01-29T15:12:07.376Z,63.69
2019-01-29T15:14:37.827Z,63.56
2019-01-29T15:17:10.261Z,63.82
2019-01-29T15:19:41.634Z,63.82
2019-01-29T15:22:11.890Z,64.14
2019-01-29T15:24:43.310Z,64.14
2019-01-29T15:27:13.558Z,64.54
2019-01-29T15:29:47.332Z,65.14
2019-01-29T15:32:21.350Z,65.23
2019-01-29T15:34:55.789Z,65.25
2019-01-29T15:37:26.120Z,65.49
2019-01-29T15:39:57.561Z,65.84
2019-01-29T15:42:27.802Z,66.45
2019-01-29T15:44:59.214Z,67.03
2019-01-29T15:47:32.245Z,67.03
2019-01-29T15:50:06.591Z,67.55
2019-01-29T15:52:36.987Z,68.18
2019-01-29T15:55:11.605Z,68.18
2019-01-29T15:57:42.095Z,67.69
2019-01-29T16:00:18.520Z,67.81
2019-01-29T16:02:50.600Z,68.09
2019-01-29T16:05:26.268Z,67.86
2019-01-29T16:07:57.365Z,67.89
2019-01-29T16:10:45.541Z,67.97
2019-01-29T16:13:20.678Z,68.14
2019-01-29T16:15:59.257Z,68.81
2019-01-29T16:18:30.699Z,68.81
2019-01-29T16:21:01.339Z,68.91
2019-01-29T16:23:35.066Z,69.21
2019-01-29T16:26:05.885Z,69.12
2019-01-29T16:28:36.309Z,69.30
2019-01-29T16:31:07.757Z,69.33
2019-01-29T16:33:38.742Z,69.34
2019-01-29T16:36:09.131Z,69.26
2019-01-29T16:38:41.506Z,69.50
2019-01-29T16:41:12.945Z,69.22
2019-01-29T16:43:44.422Z,69.15
2019-01-29T16:46:14.681Z,69.09
2019-01-29T16:48:45.304Z,68.85
2019-01-29T16:51:17.301Z,68.78
2019-01-29T16:53:47.745Z,68.60
2019-01-29T16:56:19.167Z,69.13
2019-01-29T16:58:49.446Z,69.25
2019-01-29T17:01:19.673Z,69.30
2019-01-29T17:03:51.468Z,69.05
2019-01-29T17:06:21.948Z,68.73
2019-01-29T17:08:52.488Z,68.73
2019-01-29T17:11:22.738Z,68.94
2019-01-29T17:13:53.228Z,68.25
2019-01-29T17:16:27.450Z,68.82
2019-01-29T17:18:58.903Z,69.64
2019-01-29T17:21:29.125Z,70.54
2019-01-29T17:24:00.569Z,70.10
2019-01-29T17:26:31.979Z,70.06
2019-01-29T17:29:02.359Z,70.58
2019-01-29T17:31:34.603Z,70.58
2019-01-29T17:34:06.070Z,71.42
2019-01-29T17:36:37.513Z,71.42
2019-01-29T17:39:09.780Z,71.02
2019-01-29T17:41:40.112Z,71.02
2019-01-29T17:44:10.424Z,71.04
2019-01-29T17:46:42.696Z,71.45
2019-01-29T17:49:15.245Z,71.45
2019-01-29T17:51:48.164Z,72.09
2019-01-29T17:54:20.131Z,72.26
2019-01-29T17:56:50.764Z,72.26
2019-01-29T17:59:21.222Z,71.80
2019-01-29T18:01:54.322Z,72.61
2019-01-29T18:04:27.568Z,72.61
2019-01-29T18:06:57.964Z,72.97
2019-01-29T18:09:28.842Z,73.22
2019-01-29T18:11:59.461Z,73.50
2019-01-29T18:14:32.440Z,73.34
2019-01-29T18:17:02.846Z,73.17
2019-01-29T18:19:33.090Z,73.58
2019-01-29T18:22:04.526Z,73.48
2019-01-29T18:24:35.700Z,73.06
2019-01-29T18:27:08.049Z,72.99
2019-01-29T18:29:38.312Z,72.99
2019-01-29T18:32:09.734Z,73.10
2019-01-29T18:34:41.354Z,72.78
2019-01-29T18:37:11.716Z,73.02
2019-01-29T18:39:43.177Z,72.80
2019-01-29T18:42:16.225Z,72.80
2019-01-29T18:44:46.478Z,72.90
2019-01-29T18:47:16.938Z,73.04
2019-01-29T18:49:51.245Z,73.04
2019-01-29T18:52:22.973Z,72.85
2019-01-29T18:54:53.423Z,72.93
2019-01-29T18:57:23.941Z,72.80
2019-01-29T18:59:56.626Z,72.46
2019-01-29T19:02:27.145Z,72.56
2019-01-29T19:04:58.626Z,72.36
2019-01-29T19:07:30.056Z,72.20
2019-01-29T19:10:04.480Z,72.38
2019-01-29T19:12:34.791Z,72.30
2019-01-29T19:15:08.370Z,72.59
2019-01-29T19:17:40.879Z,72.14
2019-01-29T19:20:14.159Z,71.95
2019-01-29T19:22:44.868Z,72.37
2019-01-29T19:25:16.496Z,72.37
2019-01-29T19:27:46.915Z,72.43
2019-01-29T19:30:19.988Z,72.64
2019-01-29T19:32:50.099Z,72.55
2019-01-29T19:35:23.114Z,72.82
2019-01-29T19:37:54.526Z,72.86
2019-01-29T19:40:24.800Z,72.67
2019-01-29T19:42:56.190Z,72.36
2019-01-29T19:45:32.481Z,72.32
2019-01-29T19:48:06.891Z,71.96
2019-01-29T19:50:38.842Z,71.95
2019-01-29T19:53:09.148Z,72.05
2019-01-29T19:55:42.238Z,72.05
2019-01-29T19:58:12.601Z,71.87
2019-01-29T20:00:43.262Z,71.76
2019-01-29T20:03:15.884Z,71.83
2019-01-29T20:05:48.483Z,71.68
2019-01-29T20:08:18.707Z,71.84
2019-01-29T20:10:50.368Z,71.99
2019-01-29T20:13:22.329Z,71.99
2019-01-29T20:15:58.416Z,71.90
2019-01-29T20:18:28.983Z,71.89
2019-01-29T20:21:00.974Z,72.38
2019-01-29T20:23:31.692Z,72.08
2019-01-29T20:26:03.482Z,71.79
2019-01-29T20:28:42.176Z,71.84
2019-01-29T20:31:05.890Z,71.66
2019-01-29T20:33:40.762Z,71.66
2019-01-29T20:36:11.141Z,71.95
2019-01-29T20:38:43.830Z,71.86
2019-01-29T20:41:14.322Z,71.86
2019-01-29T20:43:44.598Z,72.26
2019-01-29T20:46:15.462Z,72.26
2019-01-29T20:48:46.715Z,72.25
2019-01-29T20:51:17.084Z,72.28
2019-01-29T20:53:48.741Z,72.54
2019-01-29T20:56:20.886Z,72.55
2019-01-29T20:58:53.129Z,72.29
2019-01-29T21:01:24.160Z,72.29
2019-01-29T21:03:54.930Z,72.60
2019-01-29T21:06:26.474Z,72.32
2019-01-29T21:08:58.161Z,71.76
2019-01-29T21:11:32.541Z,71.71
2019-01-29T21:14:04.444Z,71.60
2019-01-29T21:16:35.951Z,71.48
2019-01-29T21:19:06.432Z,71.48
2019-01-29T21:21:39.407Z,71.41
2019-01-29T21:24:10.870Z,71.60
2019-01-29T21:26:41.511Z,71.63
2019-01-29T21:29:12.853Z,71.48
2019-01-29T21:31:45.341Z,71.62
2019-01-29T21:34:15.757Z,71.71
2019-01-29T21:36:48.694Z,72.00
2019-01-29T21:39:18.978Z,71.89
2019-01-29T21:41:50.389Z,71.80
2019-01-29T21:44:20.916Z,71.92
2019-01-29T21:46:51.190Z,71.90
2019-01-29T21:49:21.726Z,72.26
2019-01-29T21:51:54.683Z,72.42
2019-01-29T21:54:26.093Z,72.50
2019-01-29T21:56:56.339Z,72.95
2019-01-29T21:59:28.215Z,73.08
2019-01-29T22:01:58.632Z,72.80
2019-01-29T22:04:33.788Z,72.68
2019-01-29T22:07:06.746Z,72.81
2019-01-29T22:09:43.586Z,72.52
2019-01-29T22:12:15.023Z,72.68
2019-01-29T22:14:45.384Z,72.29
2019-01-29T22:17:15.926Z,72.32
2019-01-29T22:19:47.767Z,72.37
2019-01-29T22:22:18.241Z,72.53
2019-01-29T22:24:49.657Z,72.14
2019-01-29T22:27:25.526Z,72.25
2019-01-29T22:29:57.490Z,72.54
2019-01-29T22:32:30.607Z,72.86
2019-01-29T22:35:00.843Z,72.61
2019-01-29T22:37:31.087Z,72.45
2019-01-29T22:40:01.315Z,72.52
2019-01-29T22:42:31.730Z,72.72
2019-01-29T22:45:02.012Z,72.81
2019-01-29T22:47:32.425Z,72.91
2019-01-29T22:50:02.631Z,72.83
2019-01-29T22:52:32.944Z,72.75
2019-01-29T22:55:07.753Z,72.66
2019-01-29T22:57:37.981Z,72.66
2019-01-29T23:00:49.402Z,73.02
2019-01-29T23:03:42.042Z,73.21
2019-01-29T23:06:15.514Z,72.97
2019-01-29T23:08:45.760Z,73.07
2019-01-29T23:11:15.992Z,73.03
2019-01-29T23:13:47.145Z,73.24
2019-01-29T23:16:17.352Z,73.09
2019-01-29T23:18:48.373Z,73.10
2019-01-29T23:21:18.602Z,72.87
2019-01-29T23:23:48.829Z,72.96
2019-01-29T23:26:19.207Z,73.15
2019-01-29T23:28:49.432Z,73.24
2019-01-29T23:31:19.662Z,73.08
2019-01-29T23:33:49.930Z,73.14
2019-01-29T23:36:20.147Z,73.60
2019-01-29T23:38:50.567Z,73.52
2019-01-29T23:41:20.786Z,73.62
2019-01-29T23:43:51.015Z,73.41
2019-01-29T23:46:22.492Z,73.58
2019-01-29T23:48:52.735Z,73.43
2019-01-29T23:51:24.210Z,73.25
2019-01-29T23:53:54.432Z,73.38
2019-01-29T23:56:26.108Z,73.43
2019-01-29T23:58:56.341Z,73.28
